createdAt,value
2022-10-12T00:02:23.956Z,13.33
2022-10-12T00:04:50.912Z,10.97
2022-10-12T00:07:17.903Z,12.23
2022-10-12T00:09:45.039Z,9.17
2022-10-12T00:12:12.128Z,12.13
2022-10-12T00:14:39.115Z,9.17
2022-10-12T00:17:06.027Z,11.03
2022-10-12T00:19:32.920Z,9.87
2022-10-12T00:21:59.833Z,15.40
2022-10-12T00:24:26.805Z,18.13
2022-10-12T00:26:53.852Z,13.70
2022-10-12T00:29:20.933Z,15.07
2022-10-12T00:31:47.888Z,11.03
2022-10-12T00:34:15.026Z,10.53
2022-10-12T00:36:42.066Z,11.33
2022-10-12T00:39:09.760Z,10.63
2022-10-12T00:41:42.886Z,13.20
2022-10-12T00:44:54.831Z,9.37
2022-10-12T00:47:47.676Z,11.43
2022-10-12T00:50:35.466Z,11.00
2022-10-12T00:53:11.113Z,9.10
2022-10-12T00:55:44.620Z,8.40
2022-10-12T00:58:11.808Z,12.37
2022-10-12T01:00:39.983Z,16.57
2022-10-12T01:03:09.712Z,11.87
2022-10-12T01:05:39.622Z,8.53
2022-10-12T01:08:07.060Z,12.00
2022-10-12T01:10:33.971Z,10.50
2022-10-12T01:13:01.443Z,12.63
2022-10-12T01:15:34.738Z,10.13
2022-10-12T01:18:24.068Z,9.03
2022-10-12T01:21:17.287Z,12.13
2022-10-12T01:24:24.192Z,10.20
2022-10-12T01:27:12.337Z,12.93
2022-10-12T01:29:50.108Z,13.37
2022-10-12T01:32:21.764Z,14.73
2022-10-12T01:34:58.296Z,11.17
2022-10-12T01:37:45.483Z,13.47
2022-10-12T01:40:20.354Z,9.57
2022-10-12T01:42:48.370Z,15.20
2022-10-12T01:45:18.292Z,17.77
2022-10-12T01:47:49.531Z,18.53
2022-10-12T01:50:18.767Z,12.43
2022-10-12T01:52:58.187Z,10.80
2022-10-12T01:55:53.960Z,10.53
2022-10-12T01:58:39.916Z,10.23
2022-10-12T02:01:34.789Z,10.67
2022-10-12T02:04:20.527Z,9.47
2022-10-12T02:06:53.503Z,13.17
2022-10-12T02:09:33.234Z,13.30
2022-10-12T02:12:08.247Z,16.43
2022-10-12T02:14:42.116Z,13.20
2022-10-12T02:17:13.840Z,9.03
2022-10-12T02:19:48.512Z,9.07
2022-10-12T02:22:17.240Z,11.83
2022-10-12T02:24:47.961Z,12.23
2022-10-12T02:27:16.867Z,13.00
2022-10-12T02:29:46.676Z,17.00
2022-10-12T02:32:30.108Z,12.37
2022-10-12T02:35:15.547Z,12.57
2022-10-12T02:37:49.921Z,12.80
2022-10-12T02:40:38.869Z,15.73
2022-10-12T02:43:16.497Z,15.47
2022-10-12T02:45:46.458Z,14.80
2022-10-12T02:48:20.046Z,13.23
2022-10-12T02:50:49.294Z,15.27
2022-10-12T02:53:17.183Z,13.73
2022-10-12T02:55:52.973Z,12.60
2022-10-12T02:58:20.767Z,11.60
2022-10-12T03:00:47.947Z,15.90
2022-10-12T03:03:14.939Z,17.87
2022-10-12T03:05:41.795Z,13.70
2022-10-12T03:08:08.800Z,16.77
2022-10-12T03:10:35.760Z,14.57
2022-10-12T03:13:03.045Z,11.77
2022-10-12T03:15:30.598Z,11.87
2022-10-12T03:17:57.471Z,16.00
2022-10-12T03:20:24.568Z,12.43
2022-10-12T03:22:51.860Z,12.53
2022-10-12T03:25:19.068Z,12.93
2022-10-12T03:27:46.050Z,18.73
2022-10-12T03:30:13.689Z,13.90
2022-10-12T03:32:40.895Z,12.53
2022-10-12T03:35:08.569Z,15.00
2022-10-12T03:37:35.655Z,16.30
2022-10-12T03:40:03.331Z,13.73
2022-10-12T03:42:30.258Z,15.33
2022-10-12T03:44:57.167Z,13.47
2022-10-12T03:47:24.047Z,14.57
2022-10-12T03:49:51.168Z,16.83
2022-10-12T03:52:18.187Z,17.07
2022-10-12T03:54:45.258Z,14.67
2022-10-12T03:57:12.181Z,15.17
2022-10-12T03:59:39.072Z,19.90
2022-10-12T04:02:05.963Z,14.23
2022-10-12T04:04:32.918Z,14.83
2022-10-12T04:06:59.876Z,13.93
2022-10-12T04:09:27.030Z,10.17
2022-10-12T04:11:53.993Z,14.47
2022-10-12T04:14:20.892Z,19.67
2022-10-12T04:16:47.807Z,14.37
2022-10-12T04:19:15.011Z,24.23
2022-10-12T04:21:42.061Z,12.67
2022-10-12T04:24:09.009Z,14.00
2022-10-12T04:26:35.964Z,16.90
2022-10-12T04:29:03.596Z,16.17
2022-10-12T04:31:30.805Z,18.70
2022-10-12T04:33:57.890Z,15.07
2022-10-12T04:36:26.238Z,17.03
2022-10-12T04:38:58.395Z,14.07
2022-10-12T04:41:28.008Z,15.77
2022-10-12T04:43:55.004Z,16.43
2022-10-12T04:46:22.337Z,18.00
2022-10-12T04:48:49.839Z,13.97
2022-10-12T04:51:17.066Z,16.73
2022-10-12T04:53:43.968Z,14.63
2022-10-12T04:56:10.943Z,17.97
2022-10-12T04:58:37.966Z,17.40
2022-10-12T05:01:05.114Z,16.23
2022-10-12T05:03:32.271Z,17.60
2022-10-12T05:05:59.267Z,12.97
2022-10-12T05:08:26.364Z,14.50
2022-10-12T05:10:53.490Z,13.87
2022-10-12T05:13:20.424Z,15.50
2022-10-12T05:15:47.453Z,15.90
2022-10-12T05:18:14.531Z,16.57
2022-10-12T05:20:41.467Z,13.50
2022-10-12T05:23:09.627Z,17.90
2022-10-12T05:25:36.662Z,20.43
2022-10-12T05:28:03.887Z,19.20
2022-10-12T05:30:31.054Z,19.63
2022-10-12T05:32:58.082Z,20.00
2022-10-12T05:35:25.037Z,14.20
2022-10-12T05:37:51.974Z,14.77
2022-10-12T05:40:19.175Z,15.03
2022-10-12T05:42:46.352Z,17.23
2022-10-12T05:45:13.743Z,20.03
2022-10-12T05:47:41.548Z,19.97
2022-10-12T05:50:08.990Z,22.53
2022-10-12T05:52:36.565Z,19.47
2022-10-12T05:55:03.930Z,15.77
2022-10-12T05:57:31.295Z,14.33
2022-10-12T05:59:58.334Z,15.13
2022-10-12T06:02:25.363Z,12.63
2022-10-12T06:04:52.343Z,17.57
2022-10-12T06:07:19.247Z,20.27
2022-10-12T06:09:47.630Z,18.47
2022-10-12T06:12:14.795Z,17.40
2022-10-12T06:14:41.796Z,20.97
2022-10-12T06:17:09.699Z,16.67
2022-10-12T06:19:37.120Z,17.17
2022-10-12T06:22:04.144Z,19.70
2022-10-12T06:24:31.124Z,18.13
2022-10-12T06:26:58.720Z,18.90
2022-10-12T06:29:26.095Z,15.43
2022-10-12T06:31:54.246Z,19.30
2022-10-12T06:34:21.461Z,21.60
2022-10-12T06:36:49.595Z,15.90
2022-10-12T06:39:16.525Z,15.20
2022-10-12T06:41:43.528Z,14.87
2022-10-12T06:44:10.481Z,15.97
2022-10-12T06:46:37.549Z,17.93
2022-10-12T06:49:04.500Z,17.23
2022-10-12T06:51:31.383Z,17.47
2022-10-12T06:53:58.323Z,20.30
2022-10-12T06:56:25.304Z,17.30
2022-10-12T06:58:56.287Z,16.70
2022-10-12T07:01:24.292Z,16.00
2022-10-12T07:03:51.254Z,20.67
2022-10-12T07:06:18.442Z,17.07
2022-10-12T07:08:45.324Z,20.33
2022-10-12T07:11:13.666Z,14.80
2022-10-12T07:13:41.048Z,16.47
2022-10-12T07:16:08.239Z,20.07
2022-10-12T07:18:35.250Z,18.47
2022-10-12T07:21:02.916Z,19.67
2022-10-12T07:23:31.719Z,14.53
2022-10-12T07:25:59.163Z,20.17
2022-10-12T07:28:26.389Z,20.23
2022-10-12T07:30:53.439Z,19.10
2022-10-12T07:33:20.332Z,13.93
2022-10-12T07:36:12.789Z,18.43
2022-10-12T07:38:40.295Z,15.60
2022-10-12T07:41:07.613Z,15.40
2022-10-12T07:43:34.579Z,19.57
2022-10-12T07:46:01.559Z,17.23
2022-10-12T07:48:28.495Z,18.40
2022-10-12T07:50:55.532Z,16.87
2022-10-12T07:53:22.735Z,19.43
2022-10-12T07:55:50.154Z,16.87
2022-10-12T07:58:17.210Z,16.13
2022-10-12T08:00:44.108Z,20.50
2022-10-12T08:03:11.317Z,17.90
2022-10-12T08:05:38.626Z,16.10
2022-10-12T08:08:05.881Z,18.97
2022-10-12T08:10:34.682Z,17.27
2022-10-12T08:13:01.940Z,18.17
2022-10-12T08:15:28.912Z,20.00
2022-10-12T08:17:55.951Z,17.23
2022-10-12T08:20:22.877Z,19.70
2022-10-12T08:22:49.761Z,19.60
2022-10-12T08:25:16.680Z,14.37
2022-10-12T08:27:43.579Z,15.20
2022-10-12T08:30:11.178Z,13.73
2022-10-12T08:32:38.262Z,14.17
2022-10-12T08:35:05.957Z,16.77
2022-10-12T08:37:32.843Z,15.57
2022-10-12T08:40:03.012Z,13.80
2022-10-12T08:42:55.483Z,16.23
2022-10-12T08:45:35.001Z,14.35
2022-10-12T08:55:46.187Z,17.07
2022-10-12T08:58:40.619Z,19.23
2022-10-12T09:01:37.064Z,14.60
2022-10-12T09:04:20.201Z,17.40
2022-10-12T09:07:16.949Z,15.40
2022-10-12T09:09:56.762Z,19.90
2022-10-12T09:12:34.169Z,17.93
2022-10-12T09:15:05.521Z,16.27
2022-10-12T09:17:53.244Z,19.73
2022-10-12T09:20:22.927Z,20.13
2022-10-12T09:22:53.244Z,17.67
2022-10-12T09:25:27.468Z,18.20
2022-10-12T09:27:57.564Z,17.13
2022-10-12T09:30:24.919Z,16.67
2022-10-12T09:33:23.754Z,17.37
2022-10-12T09:35:52.573Z,21.40
2022-10-12T09:38:19.516Z,19.13
2022-10-12T09:40:47.172Z,20.07
2022-10-12T09:43:15.488Z,25.53
2022-10-12T09:45:43.472Z,20.73
2022-10-12T09:48:13.241Z,21.50
2022-10-12T10:00:45.297Z,18.70
2022-10-12T13:42:33.769Z,20.37
2022-10-12T18:15:58.120Z,26.40
2022-10-12T18:18:26.142Z,21.67
2022-10-12T18:20:53.590Z,31.87
2022-10-12T18:23:20.592Z,26.00
2022-10-12T18:25:47.621Z,32.13
2022-10-12T18:28:14.880Z,35.80
2022-10-12T18:30:48.988Z,36.70
2022-10-12T18:33:17.311Z,31.97
2022-10-12T18:35:44.334Z,30.27
2022-10-12T18:38:11.759Z,31.90
2022-10-12T18:40:42.204Z,30.27
2022-10-12T18:43:10.508Z,31.33
2022-10-12T18:45:45.209Z,33.97
2022-10-12T18:48:12.940Z,27.63
2022-10-12T18:50:40.364Z,26.90
2022-10-12T18:53:07.334Z,32.87
2022-10-12T18:55:38.103Z,34.30
2022-10-12T18:58:09.233Z,35.27
2022-10-12T19:00:36.897Z,37.53
2022-10-12T19:03:05.498Z,35.57
2022-10-12T19:05:33.902Z,37.20
2022-10-12T19:08:00.865Z,40.83
2022-10-12T19:10:27.887Z,31.73
2022-10-12T19:12:56.097Z,37.93
2022-10-12T19:15:23.357Z,35.03
2022-10-12T19:17:51.538Z,33.13
2022-10-12T19:20:18.743Z,28.67
2022-10-12T19:22:45.681Z,30.13
2022-10-12T19:25:12.689Z,32.60
2022-10-12T19:27:39.862Z,35.97
2022-10-12T19:30:11.566Z,33.83
2022-10-12T19:32:39.185Z,35.47
2022-10-12T19:35:06.891Z,26.50
2022-10-12T19:37:37.054Z,28.40
2022-10-12T19:40:07.846Z,27.43
2022-10-12T19:42:35.445Z,32.50
2022-10-12T19:45:03.736Z,29.67
2022-10-12T19:47:30.806Z,32.57
2022-10-12T19:49:58.012Z,43.03
2022-10-12T19:52:24.988Z,38.40
2022-10-12T19:54:52.085Z,29.03
2022-10-12T19:57:21.505Z,31.33
2022-10-12T19:59:53.301Z,36.20
2022-10-12T20:02:23.277Z,33.13
2022-10-12T20:04:54.245Z,40.30
2022-10-12T20:07:21.705Z,28.40
2022-10-12T20:09:49.131Z,34.97
2022-10-12T20:12:16.398Z,33.13
2022-10-12T20:14:43.580Z,36.80
2022-10-12T20:17:10.485Z,31.93
2022-10-12T20:19:37.660Z,39.53
2022-10-12T20:22:04.707Z,40.43
2022-10-12T20:24:31.635Z,33.13
2022-10-12T20:26:58.636Z,30.50
2022-10-12T20:29:25.546Z,39.17
2022-10-12T20:31:52.605Z,33.57
2022-10-12T20:34:19.616Z,32.93
2022-10-12T20:36:46.739Z,30.57
2022-10-12T20:39:13.670Z,29.30
2022-10-12T20:41:41.468Z,31.90
2022-10-12T20:44:09.948Z,38.03
2022-10-12T20:46:37.137Z,39.90
2022-10-12T20:49:04.584Z,36.07
2022-10-12T20:51:35.913Z,39.23
2022-10-12T20:54:05.252Z,36.27
2022-10-12T20:56:33.739Z,28.67
2022-10-12T20:59:01.393Z,31.90
2022-10-12T21:01:28.749Z,39.40
2022-10-12T21:03:56.338Z,35.73
2022-10-12T21:06:23.921Z,40.13
2022-10-12T21:08:53.270Z,37.53
2022-10-12T21:11:20.915Z,39.27
2022-10-12T21:13:49.520Z,34.63
2022-10-12T21:16:16.553Z,33.33
2022-10-12T21:18:43.549Z,34.83
2022-10-12T21:21:13.804Z,32.73
2022-10-12T21:23:42.580Z,29.33
2022-10-12T21:26:15.596Z,27.90
2022-10-12T21:28:42.979Z,31.13
2022-10-12T21:31:10.700Z,28.77
2022-10-12T21:33:39.032Z,33.37
2022-10-12T21:36:27.050Z,30.17
2022-10-12T21:38:54.983Z,32.70
2022-10-12T21:41:27.759Z,36.20
2022-10-12T21:43:56.076Z,32.10
2022-10-12T21:46:26.167Z,29.40
2022-10-12T21:48:53.814Z,27.77
2022-10-12T21:51:22.850Z,28.10
2022-10-12T21:53:50.415Z,30.67
2022-10-12T21:56:27.398Z,39.43
2022-10-12T21:58:59.121Z,42.67
2022-10-12T22:01:29.977Z,37.97
2022-10-12T22:03:59.982Z,39.47
2022-10-12T22:06:28.804Z,35.97
2022-10-12T22:09:06.244Z,45.03
2022-10-12T22:11:35.233Z,51.37
2022-10-12T22:14:08.438Z,64.07
2022-10-12T22:16:36.933Z,61.17
2022-10-12T22:19:06.560Z,182.43
2022-10-12T22:21:35.316Z,133.03
2022-10-12T22:24:02.656Z,117.07
2022-10-12T22:26:30.006Z,99.90
2022-10-12T22:28:59.314Z,58.83
2022-10-12T22:31:27.024Z,93.03
2022-10-12T22:33:55.027Z,40.40
2022-10-12T22:36:22.026Z,66.57
2022-10-12T22:38:48.984Z,45.17
2022-10-12T22:41:20.840Z,41.30
2022-10-12T22:43:48.864Z,42.07
2022-10-12T22:46:16.620Z,42.93
2022-10-12T22:48:43.814Z,39.00
2022-10-12T22:51:16.133Z,34.60
2022-10-12T22:53:43.105Z,31.30
2022-10-12T22:56:16.480Z,29.17
2022-10-12T22:58:43.665Z,27.40
2022-10-12T23:01:15.532Z,24.70
2022-10-12T23:03:42.464Z,23.07
2022-10-12T23:06:16.208Z,22.23
2022-10-12T23:08:43.419Z,24.77
2022-10-12T23:11:16.218Z,25.30
2022-10-12T23:13:43.893Z,24.33
2022-10-12T23:16:31.584Z,23.53
2022-10-12T23:19:05.216Z,23.53
2022-10-12T23:21:33.983Z,21.43
2022-10-12T23:24:01.937Z,22.93
2022-10-12T23:26:29.574Z,28.10
2022-10-12T23:28:56.798Z,22.40
2022-10-12T23:31:27.699Z,29.13
2022-10-12T23:34:03.936Z,34.63
2022-10-12T23:36:31.431Z,42.60
2022-10-12T23:39:02.641Z,29.03
2022-10-12T23:41:29.732Z,24.77
2022-10-12T23:43:56.904Z,27.30
2022-10-12T23:46:23.880Z,25.50
2022-10-12T23:48:51.578Z,23.37
2022-10-12T23:51:18.703Z,21.87
2022-10-12T23:53:45.655Z,27.90
2022-10-12T23:56:13.258Z,22.87
2022-10-12T23:58:40.800Z,24.37
